sensor_id;sensor_type;location;lat;lon;timestamp;P1;durP1;ratioP1;P2;durP2;ratioP2
22334;SDS011;11335;43.848;25.958;2023-04-24T00:00:59;8.98;;;5.53;;
22334;SDS011;11335;43.848;25.958;2023-04-24T00:03:46;9.32;;;5.97;;
22334;SDS011;11335;43.848;25.958;2023-04-24T00:06:31;10.52;;;5.60;;
22334;SDS011;11335;43.848;25.958;2023-04-24T00:09:22;9.90;;;5.75;;
22334;SDS011;11335;43.848;25.958;2023-04-24T00:12:08;7.82;;;5.22;;
22334;SDS011;11335;43.848;25.958;2023-04-24T00:14:53;8.43;;;5.40;;
22334;SDS011;11335;43.848;25.958;2023-04-24T00:17:39;8.93;;;5.90;;
22334;SDS011;11335;43.848;25.958;2023-04-24T00:20:25;13.65;;;5.75;;
22334;SDS011;11335;43.848;25.958;2023-04-24T00:23:10;8.27;;;5.50;;
22334;SDS011;11335;43.848;25.958;2023-04-24T00:25:56;15.20;;;5.95;;
22334;SDS011;11335;43.848;25.958;2023-04-24T00:28:41;9.48;;;5.72;;
22334;SDS011;11335;43.848;25.958;2023-04-24T00:31:27;10.00;;;5.60;;
22334;SDS011;11335;43.848;25.958;2023-04-24T00:34:13;10.13;;;5.38;;
22334;SDS011;11335;43.848;25.958;2023-04-24T00:36:58;10.93;;;5.80;;
22334;SDS011;11335;43.848;25.958;2023-04-24T00:39:44;9.52;;;5.60;;
22334;SDS011;11335;43.848;25.958;2023-04-24T00:42:30;10.27;;;5.40;;
22334;SDS011;11335;43.848;25.958;2023-04-24T00:45:16;9.25;;;5.50;;
22334;SDS011;11335;43.848;25.958;2023-04-24T00:48:01;9.60;;;5.60;;
22334;SDS011;11335;43.848;25.958;2023-04-24T00:50:47;8.85;;;5.18;;
22334;SDS011;11335;43.848;25.958;2023-04-24T00:53:32;7.72;;;5.30;;
22334;SDS011;11335;43.848;25.958;2023-04-24T00:56:18;12.50;;;5.68;;
22334;SDS011;11335;43.848;25.958;2023-04-24T00:59:04;11.88;;;5.70;;
22334;SDS011;11335;43.848;25.958;2023-04-24T01:01:50;12.80;;;5.60;;
22334;SDS011;11335;43.848;25.958;2023-04-24T01:04:36;8.57;;;5.45;;
22334;SDS011;11335;43.848;25.958;2023-04-24T01:07:22;11.35;;;5.70;;
22334;SDS011;11335;43.848;25.958;2023-04-24T01:10:07;7.72;;;5.60;;
22334;SDS011;11335;43.848;25.958;2023-04-24T01:12:53;9.02;;;6.03;;
22334;SDS011;11335;43.848;25.958;2023-04-24T01:15:39;7.70;;;5.03;;
22334;SDS011;11335;43.848;25.958;2023-04-24T01:18:25;9.45;;;5.13;;
22334;SDS011;11335;43.848;25.958;2023-04-24T01:21:13;11.48;;;5.47;;
22334;SDS011;11335;43.848;25.958;2023-04-24T01:24:00;12.15;;;5.90;;
22334;SDS011;11335;43.848;25.958;2023-04-24T01:26:46;11.15;;;5.93;;
22334;SDS011;11335;43.848;25.958;2023-04-24T01:29:32;10.18;;;5.18;;
22334;SDS011;11335;43.848;25.958;2023-04-24T01:32:17;11.15;;;5.82;;
22334;SDS011;11335;43.848;25.958;2023-04-24T01:35:04;6.53;;;5.28;;
22334;SDS011;11335;43.848;25.958;2023-04-24T01:37:50;13.13;;;5.68;;
22334;SDS011;11335;43.848;25.958;2023-04-24T01:40:35;11.00;;;5.38;;
22334;SDS011;11335;43.848;25.958;2023-04-24T01:43:21;7.47;;;5.47;;
22334;SDS011;11335;43.848;25.958;2023-04-24T01:46:06;8.90;;;5.60;;
22334;SDS011;11335;43.848;25.958;2023-04-24T01:48:52;11.00;;;5.30;;
22334;SDS011;11335;43.848;25.958;2023-04-24T01:51:38;9.38;;;5.50;;
22334;SDS011;11335;43.848;25.958;2023-04-24T01:54:24;7.88;;;5.18;;
22334;SDS011;11335;43.848;25.958;2023-04-24T01:57:09;10.90;;;5.93;;
22334;SDS011;11335;43.848;25.958;2023-04-24T01:59:55;13.43;;;5.45;;
22334;SDS011;11335;43.848;25.958;2023-04-24T02:02:40;9.13;;;5.63;;
22334;SDS011;11335;43.848;25.958;2023-04-24T02:05:26;10.32;;;5.53;;
22334;SDS011;11335;43.848;25.958;2023-04-24T02:08:12;8.23;;;5.22;;
22334;SDS011;11335;43.848;25.958;2023-04-24T02:10:57;12.88;;;5.38;;
22334;SDS011;11335;43.848;25.958;2023-04-24T02:13:43;10.25;;;5.80;;
22334;SDS011;11335;43.848;25.958;2023-04-24T02:16:28;9.10;;;5.75;;
22334;SDS011;11335;43.848;25.958;2023-04-24T02:19:18;12.60;;;5.78;;
22334;SDS011;11335;43.848;25.958;2023-04-24T02:22:03;13.52;;;5.70;;
22334;SDS011;11335;43.848;25.958;2023-04-24T02:24:49;6.95;;;5.18;;
22334;SDS011;11335;43.848;25.958;2023-04-24T02:27:34;7.03;;;5.32;;
22334;SDS011;11335;43.848;25.958;2023-04-24T02:30:20;9.15;;;5.38;;
22334;SDS011;11335;43.848;25.958;2023-04-24T02:33:06;9.50;;;5.43;;
22334;SDS011;11335;43.848;25.958;2023-04-24T02:35:51;9.55;;;5.50;;
22334;SDS011;11335;43.848;25.958;2023-04-24T02:38:37;10.93;;;5.50;;
22334;SDS011;11335;43.848;25.958;2023-04-24T02:41:22;19.50;;;5.90;;
22334;SDS011;11335;43.848;25.958;2023-04-24T02:44:08;12.85;;;6.25;;
22334;SDS011;11335;43.848;25.958;2023-04-24T02:46:53;9.93;;;6.20;;
22334;SDS011;11335;43.848;25.958;2023-04-24T02:49:39;12.88;;;6.00;;
22334;SDS011;11335;43.848;25.958;2023-04-24T02:52:25;11.05;;;6.40;;
22334;SDS011;11335;43.848;25.958;2023-04-24T02:55:10;13.70;;;7.40;;
22334;SDS011;11335;43.848;25.958;2023-04-24T02:57:56;10.43;;;7.25;;
22334;SDS011;11335;43.848;25.958;2023-04-24T03:00:41;11.82;;;7.07;;
22334;SDS011;11335;43.848;25.958;2023-04-24T03:03:27;8.52;;;6.55;;
22334;SDS011;11335;43.848;25.958;2023-04-24T03:06:12;8.68;;;6.10;;
22334;SDS011;11335;43.848;25.958;2023-04-24T03:08:58;9.48;;;5.88;;
22334;SDS011;11335;43.848;25.958;2023-04-24T03:11:44;9.43;;;5.88;;
22334;SDS011;11335;43.848;25.958;2023-04-24T03:14:29;11.50;;;6.22;;
22334;SDS011;11335;43.848;25.958;2023-04-24T03:17:16;11.30;;;6.88;;
22334;SDS011;11335;43.848;25.958;2023-04-24T03:20:02;13.35;;;7.53;;
22334;SDS011;11335;43.848;25.958;2023-04-24T03:22:50;16.27;;;7.80;;
22334;SDS011;11335;43.848;25.958;2023-04-24T03:25:36;9.82;;;6.97;;
22334;SDS011;11335;43.848;25.958;2023-04-24T03:28:21;9.95;;;6.60;;
22334;SDS011;11335;43.848;25.958;2023-04-24T03:31:07;14.98;;;7.70;;
22334;SDS011;11335;43.848;25.958;2023-04-24T03:33:53;11.23;;;6.22;;
22334;SDS011;11335;43.848;25.958;2023-04-24T03:36:38;13.55;;;6.55;;
22334;SDS011;11335;43.848;25.958;2023-04-24T03:39:24;13.77;;;6.63;;
22334;SDS011;11335;43.848;25.958;2023-04-24T03:42:10;25.55;;;11.23;;
22334;SDS011;11335;43.848;25.958;2023-04-24T03:44:56;15.25;;;8.57;;
22334;SDS011;11335;43.848;25.958;2023-04-24T03:47:41;23.13;;;9.82;;
22334;SDS011;11335;43.848;25.958;2023-04-24T03:50:27;20.10;;;10.68;;
22334;SDS011;11335;43.848;25.958;2023-04-24T03:53:14;13.82;;;8.05;;
22334;SDS011;11335;43.848;25.958;2023-04-24T03:56:00;12.77;;;7.28;;
22334;SDS011;11335;43.848;25.958;2023-04-24T03:58:46;16.67;;;7.50;;
22334;SDS011;11335;43.848;25.958;2023-04-24T04:01:31;13.13;;;7.47;;
22334;SDS011;11335;43.848;25.958;2023-04-24T04:04:17;14.18;;;7.15;;
22334;SDS011;11335;43.848;25.958;2023-04-24T04:07:02;10.98;;;6.97;;
22334;SDS011;11335;43.848;25.958;2023-04-24T04:09:48;14.90;;;7.97;;
22334;SDS011;11335;43.848;25.958;2023-04-24T04:12:33;14.68;;;7.03;;
22334;SDS011;11335;43.848;25.958;2023-04-24T04:15:19;21.23;;;7.93;;
22334;SDS011;11335;43.848;25.958;2023-04-24T04:18:05;16.75;;;8.20;;
22334;SDS011;11335;43.848;25.958;2023-04-24T04:20:50;21.23;;;12.32;;
22334;SDS011;11335;43.848;25.958;2023-04-24T04:23:36;18.98;;;11.18;;
22334;SDS011;11335;43.848;25.958;2023-04-24T04:26:22;22.40;;;10.15;;
22334;SDS011;11335;43.848;25.958;2023-04-24T04:29:10;13.90;;;8.50;;
22334;SDS011;11335;43.848;25.958;2023-04-24T04:31:57;16.30;;;8.93;;
22334;SDS011;11335;43.848;25.958;2023-04-24T04:34:43;27.58;;;8.75;;
22334;SDS011;11335;43.848;25.958;2023-04-24T04:37:30;24.45;;;9.48;;
22334;SDS011;11335;43.848;25.958;2023-04-24T04:40:16;23.20;;;8.93;;
22334;SDS011;11335;43.848;25.958;2023-04-24T04:43:02;22.17;;;9.15;;
22334;SDS011;11335;43.848;25.958;2023-04-24T04:45:48;14.30;;;7.45;;
22334;SDS011;11335;43.848;25.958;2023-04-24T04:48:34;19.08;;;7.65;;
22334;SDS011;11335;43.848;25.958;2023-04-24T04:51:20;14.93;;;6.63;;
22334;SDS011;11335;43.848;25.958;2023-04-24T04:54:06;22.15;;;7.57;;
22334;SDS011;11335;43.848;25.958;2023-04-24T04:56:51;16.98;;;7.40;;
22334;SDS011;11335;43.848;25.958;2023-04-24T04:59:37;16.08;;;7.70;;
22334;SDS011;11335;43.848;25.958;2023-04-24T05:02:22;22.60;;;7.80;;
22334;SDS011;11335;43.848;25.958;2023-04-24T05:05:08;18.70;;;7.38;;
22334;SDS011;11335;43.848;25.958;2023-04-24T05:07:54;11.40;;;7.00;;
22334;SDS011;11335;43.848;25.958;2023-04-24T05:10:39;9.95;;;6.50;;
22334;SDS011;11335;43.848;25.958;2023-04-24T05:13:25;18.23;;;8.27;;
22334;SDS011;11335;43.848;25.958;2023-04-24T05:16:10;21.75;;;8.68;;
22334;SDS011;11335;43.848;25.958;2023-04-24T05:18:56;17.27;;;8.73;;
22334;SDS011;11335;43.848;25.958;2023-04-24T05:21:42;14.48;;;8.35;;
22334;SDS011;11335;43.848;25.958;2023-04-24T05:24:27;13.43;;;8.27;;
22334;SDS011;11335;43.848;25.958;2023-04-24T05:27:13;17.33;;;7.72;;
22334;SDS011;11335;43.848;25.958;2023-04-24T05:29:58;18.20;;;8.52;;
22334;SDS011;11335;43.848;25.958;2023-04-24T05:32:44;18.73;;;9.55;;
22334;SDS011;11335;43.848;25.958;2023-04-24T05:35:30;17.92;;;8.20;;
22334;SDS011;11335;43.848;25.958;2023-04-24T05:38:15;16.80;;;8.23;;
22334;SDS011;11335;43.848;25.958;2023-04-24T05:41:04;22.67;;;7.57;;
22334;SDS011;11335;43.848;25.958;2023-04-24T05:43:50;11.55;;;6.97;;
22334;SDS011;11335;43.848;25.958;2023-04-24T05:46:36;11.45;;;6.70;;
22334;SDS011;11335;43.848;25.958;2023-04-24T05:49:22;16.65;;;6.82;;
22334;SDS011;11335;43.848;25.958;2023-04-24T05:52:08;11.90;;;6.28;;
22334;SDS011;11335;43.848;25.958;2023-04-24T05:54:54;13.45;;;5.47;;
22334;SDS011;11335;43.848;25.958;2023-04-24T05:57:40;13.75;;;5.88;;
22334;SDS011;11335;43.848;25.958;2023-04-24T06:00:25;8.70;;;5.20;;
22334;SDS011;11335;43.848;25.958;2023-04-24T06:03:12;11.10;;;5.80;;
22334;SDS011;11335;43.848;25.958;2023-04-24T06:05:57;10.23;;;5.50;;
22334;SDS011;11335;43.848;25.958;2023-04-24T06:08:43;9.35;;;5.78;;
22334;SDS011;11335;43.848;25.958;2023-04-24T06:11:29;12.35;;;5.15;;
22334;SDS011;11335;43.848;25.958;2023-04-24T06:14:15;12.38;;;5.57;;
22334;SDS011;11335;43.848;25.958;2023-04-24T06:17:00;12.00;;;5.00;;
22334;SDS011;11335;43.848;25.958;2023-04-24T06:19:46;8.82;;;4.82;;
22334;SDS011;11335;43.848;25.958;2023-04-24T06:22:32;10.32;;;4.80;;
22334;SDS011;11335;43.848;25.958;2023-04-24T06:25:18;11.90;;;6.05;;
22334;SDS011;11335;43.848;25.958;2023-04-24T06:28:04;12.98;;;6.60;;
22334;SDS011;11335;43.848;25.958;2023-04-24T06:30:50;16.45;;;6.30;;
22334;SDS011;11335;43.848;25.958;2023-04-24T06:33:35;14.55;;;5.40;;
22334;SDS011;11335;43.848;25.958;2023-04-24T06:36:21;11.95;;;6.18;;
22334;SDS011;11335;43.848;25.958;2023-04-24T06:39:07;12.45;;;6.28;;
22334;SDS011;11335;43.848;25.958;2023-04-24T06:41:52;12.43;;;6.43;;
22334;SDS011;11335;43.848;25.958;2023-04-24T06:44:38;13.48;;;5.70;;
22334;SDS011;11335;43.848;25.958;2023-04-24T06:47:26;11.05;;;5.28;;
22334;SDS011;11335;43.848;25.958;2023-04-24T06:50:11;10.35;;;5.07;;
22334;SDS011;11335;43.848;25.958;2023-04-24T06:52:57;12.70;;;5.43;;
22334;SDS011;11335;43.848;25.958;2023-04-24T06:55:43;11.57;;;5.13;;
22334;SDS011;11335;43.848;25.958;2023-04-24T06:58:30;10.18;;;4.95;;
22334;SDS011;11335;43.848;25.958;2023-04-24T07:01:16;10.60;;;5.13;;
22334;SDS011;11335;43.848;25.958;2023-04-24T07:04:01;10.68;;;5.28;;
22334;SDS011;11335;43.848;25.958;2023-04-24T07:06:47;6.15;;;5.00;;
22334;SDS011;11335;43.848;25.958;2023-04-24T07:09:33;9.23;;;5.00;;
22334;SDS011;11335;43.848;25.958;2023-04-24T07:12:20;10.65;;;5.15;;
22334;SDS011;11335;43.848;25.958;2023-04-24T07:15:07;10.80;;;4.60;;
22334;SDS011;11335;43.848;25.958;2023-04-24T07:17:53;8.55;;;4.72;;
22334;SDS011;11335;43.848;25.958;2023-04-24T07:20:39;8.32;;;5.32;;
22334;SDS011;11335;43.848;25.958;2023-04-24T07:23:24;11.52;;;5.53;;
22334;SDS011;11335;43.848;25.958;2023-04-24T07:26:10;12.23;;;5.30;;
22334;SDS011;11335;43.848;25.958;2023-04-24T07:28:56;11.57;;;5.18;;
22334;SDS011;11335;43.848;25.958;2023-04-24T07:31:41;8.35;;;5.28;;
22334;SDS011;11335;43.848;25.958;2023-04-24T07:34:27;9.40;;;5.40;;
22334;SDS011;11335;43.848;25.958;2023-04-24T07:37:12;9.30;;;5.00;;
22334;SDS011;11335;43.848;25.958;2023-04-24T07:39:58;9.10;;;5.03;;
22334;SDS011;11335;43.848;25.958;2023-04-24T07:42:44;12.05;;;5.45;;
22334;SDS011;11335;43.848;25.958;2023-04-24T07:45:29;18.27;;;5.38;;
22334;SDS011;11335;43.848;25.958;2023-04-24T07:48:16;12.13;;;4.75;;
22334;SDS011;11335;43.848;25.958;2023-04-24T07:51:03;8.65;;;4.75;;
22334;SDS011;11335;43.848;25.958;2023-04-24T07:53:48;10.80;;;4.93;;
22334;SDS011;11335;43.848;25.958;2023-04-24T07:56:34;6.95;;;4.32;;
22334;SDS011;11335;43.848;25.958;2023-04-24T07:59:21;9.20;;;4.90;;
22334;SDS011;11335;43.848;25.958;2023-04-24T08:02:07;17.25;;;5.10;;
22334;SDS011;11335;43.848;25.958;2023-04-24T08:04:52;16.42;;;5.25;;
22334;SDS011;11335;43.848;25.958;2023-04-24T08:07:41;14.63;;;5.15;;
22334;SDS011;11335;43.848;25.958;2023-04-24T08:10:30;8.65;;;4.75;;
22334;SDS011;11335;43.848;25.958;2023-04-24T08:13:16;14.52;;;5.15;;
22334;SDS011;11335;43.848;25.958;2023-04-24T08:16:02;7.28;;;4.50;;
22334;SDS011;11335;43.848;25.958;2023-04-24T08:18:47;10.50;;;4.10;;
22334;SDS011;11335;43.848;25.958;2023-04-24T08:21:33;9.30;;;4.75;;
22334;SDS011;11335;43.848;25.958;2023-04-24T08:24:18;8.73;;;4.97;;
22334;SDS011;11335;43.848;25.958;2023-04-24T08:27:04;7.63;;;4.85;;
22334;SDS011;11335;43.848;25.958;2023-04-24T08:29:50;10.48;;;5.25;;
22334;SDS011;11335;43.848;25.958;2023-04-24T08:32:36;9.93;;;4.63;;
22334;SDS011;11335;43.848;25.958;2023-04-24T08:35:21;12.68;;;5.65;;
22334;SDS011;11335;43.848;25.958;2023-04-24T08:38:08;12.07;;;5.00;;
22334;SDS011;11335;43.848;25.958;2023-04-24T08:40:54;11.65;;;5.07;;
22334;SDS011;11335;43.848;25.958;2023-04-24T08:43:39;12.95;;;4.63;;
22334;SDS011;11335;43.848;25.958;2023-04-24T08:46:25;7.05;;;4.53;;
22334;SDS011;11335;43.848;25.958;2023-04-24T08:49:12;11.80;;;5.70;;
22334;SDS011;11335;43.848;25.958;2023-04-24T08:51:58;8.60;;;4.93;;
22334;SDS011;11335;43.848;25.958;2023-04-24T08:54:45;12.07;;;5.40;;
22334;SDS011;11335;43.848;25.958;2023-04-24T08:57:32;8.95;;;4.18;;
22334;SDS011;11335;43.848;25.958;2023-04-24T09:00:19;8.73;;;4.78;;
22334;SDS011;11335;43.848;25.958;2023-04-24T09:03:05;9.60;;;4.68;;
22334;SDS011;11335;43.848;25.958;2023-04-24T09:05:51;8.88;;;4.70;;
22334;SDS011;11335;43.848;25.958;2023-04-24T09:08:37;10.38;;;4.82;;
22334;SDS011;11335;43.848;25.958;2023-04-24T09:11:25;7.25;;;4.25;;
22334;SDS011;11335;43.848;25.958;2023-04-24T09:14:11;9.43;;;4.78;;
22334;SDS011;11335;43.848;25.958;2023-04-24T09:16:57;13.40;;;4.82;;
22334;SDS011;11335;43.848;25.958;2023-04-24T09:19:42;8.40;;;4.60;;
22334;SDS011;11335;43.848;25.958;2023-04-24T09:22:31;10.43;;;4.50;;
22334;SDS011;11335;43.848;25.958;2023-04-24T09:25:16;11.85;;;4.82;;
22334;SDS011;11335;43.848;25.958;2023-04-24T09:28:03;9.82;;;4.40;;
22334;SDS011;11335;43.848;25.958;2023-04-24T09:30:54;9.23;;;4.80;;
22334;SDS011;11335;43.848;25.958;2023-04-24T09:36:41;10.90;;;5.05;;
22334;SDS011;11335;43.848;25.958;2023-04-24T09:39:27;9.52;;;4.43;;
22334;SDS011;11335;43.848;25.958;2023-04-24T09:42:13;7.40;;;4.50;;
22334;SDS011;11335;43.848;25.958;2023-04-24T09:44:58;7.88;;;4.63;;
22334;SDS011;11335;43.848;25.958;2023-04-24T09:47:44;11.95;;;4.50;;
22334;SDS011;11335;43.848;25.958;2023-04-24T09:50:30;7.55;;;4.97;;
22334;SDS011;11335;43.848;25.958;2023-04-24T09:53:23;7.18;;;4.05;;
22334;SDS011;11335;43.848;25.958;2023-04-24T09:56:09;6.93;;;4.60;;
22334;SDS011;11335;43.848;25.958;2023-04-24T09:58:56;8.45;;;4.80;;
22334;SDS011;11335;43.848;25.958;2023-04-24T10:01:49;9.48;;;4.40;;
22334;SDS011;11335;43.848;25.958;2023-04-24T10:04:34;7.72;;;4.40;;
22334;SDS011;11335;43.848;25.958;2023-04-24T10:07:20;13.82;;;5.00;;
22334;SDS011;11335;43.848;25.958;2023-04-24T10:10:06;10.55;;;4.57;;
22334;SDS011;11335;43.848;25.958;2023-04-24T10:12:51;13.20;;;4.60;;
22334;SDS011;11335;43.848;25.958;2023-04-24T10:15:38;9.38;;;4.18;;
22334;SDS011;11335;43.848;25.958;2023-04-24T10:18:23;13.52;;;4.38;;
22334;SDS011;11335;43.848;25.958;2023-04-24T10:21:09;6.93;;;4.22;;
22334;SDS011;11335;43.848;25.958;2023-04-24T10:23:55;5.53;;;4.28;;
22334;SDS011;11335;43.848;25.958;2023-04-24T10:26:41;5.63;;;3.78;;
22334;SDS011;11335;43.848;25.958;2023-04-24T10:29:26;8.90;;;3.58;;
22334;SDS011;11335;43.848;25.958;2023-04-24T10:32:12;4.85;;;3.60;;
22334;SDS011;11335;43.848;25.958;2023-04-24T10:34:58;7.13;;;3.88;;
22334;SDS011;11335;43.848;25.958;2023-04-24T10:37:46;7.57;;;3.80;;
22334;SDS011;11335;43.848;25.958;2023-04-24T10:40:34;6.53;;;4.25;;
22334;SDS011;11335;43.848;25.958;2023-04-24T10:43:20;6.25;;;4.05;;
22334;SDS011;11335;43.848;25.958;2023-04-24T10:46:06;10.48;;;3.95;;
22334;SDS011;11335;43.848;25.958;2023-04-24T10:48:52;7.30;;;4.40;;
22334;SDS011;11335;43.848;25.958;2023-04-24T10:51:46;10.50;;;3.95;;
22334;SDS011;11335;43.848;25.958;2023-04-24T10:54:36;9.98;;;4.30;;
22334;SDS011;11335;43.848;25.958;2023-04-24T10:57:26;7.60;;;4.63;;
22334;SDS011;11335;43.848;25.958;2023-04-24T11:00:16;6.10;;;4.80;;
22334;SDS011;11335;43.848;25.958;2023-04-24T11:03:07;8.18;;;4.35;;
22334;SDS011;11335;43.848;25.958;2023-04-24T11:08:45;11.40;;;4.60;;
22334;SDS011;11335;43.848;25.958;2023-04-24T11:11:31;4.65;;;3.80;;
22334;SDS011;11335;43.848;25.958;2023-04-24T11:14:16;9.07;;;4.53;;
22334;SDS011;11335;43.848;25.958;2023-04-24T11:17:02;8.48;;;4.20;;
22334;SDS011;11335;43.848;25.958;2023-04-24T11:19:50;9.02;;;4.43;;
22334;SDS011;11335;43.848;25.958;2023-04-24T11:22:37;7.72;;;4.15;;
22334;SDS011;11335;43.848;25.958;2023-04-24T11:25:25;7.45;;;4.45;;
22334;SDS011;11335;43.848;25.958;2023-04-24T11:28:14;9.02;;;4.55;;
22334;SDS011;11335;43.848;25.958;2023-04-24T11:31:33;6.95;;;4.45;;
22334;SDS011;11335;43.848;25.958;2023-04-24T11:34:07;8.13;;;4.30;;
22334;SDS011;11335;43.848;25.958;2023-04-24T11:36:53;6.95;;;4.60;;
22334;SDS011;11335;43.848;25.958;2023-04-24T11:43:02;9.32;;;4.63;;
22334;SDS011;11335;43.848;25.958;2023-04-24T11:45:49;6.90;;;4.10;;
22334;SDS011;11335;43.848;25.958;2023-04-24T11:48:35;6.28;;;4.35;;
22334;SDS011;11335;43.848;25.958;2023-04-24T11:51:25;8.23;;;4.63;;
22334;SDS011;11335;43.848;25.958;2023-04-24T11:54:11;7.15;;;4.72;;
22334;SDS011;11335;43.848;25.958;2023-04-24T11:56:57;5.22;;;4.25;;
22334;SDS011;11335;43.848;25.958;2023-04-24T11:59:43;9.57;;;4.50;;
22334;SDS011;11335;43.848;25.958;2023-04-24T12:02:28;9.77;;;5.10;;
22334;SDS011;11335;43.848;25.958;2023-04-24T12:05:24;10.63;;;5.28;;
22334;SDS011;11335;43.848;25.958;2023-04-24T12:08:11;8.63;;;5.00;;
22334;SDS011;11335;43.848;25.958;2023-04-24T12:10:56;18.35;;;6.03;;
22334;SDS011;11335;43.848;25.958;2023-04-24T12:13:42;8.88;;;5.05;;
22334;SDS011;11335;43.848;25.958;2023-04-24T12:16:28;9.82;;;5.38;;
22334;SDS011;11335;43.848;25.958;2023-04-24T12:19:22;9.73;;;4.95;;
22334;SDS011;11335;43.848;25.958;2023-04-24T12:22:08;12.23;;;5.47;;
22334;SDS011;11335;43.848;25.958;2023-04-24T12:27:43;8.07;;;5.72;;
22334;SDS011;11335;43.848;25.958;2023-04-24T12:30:28;7.68;;;5.05;;
22334;SDS011;11335;43.848;25.958;2023-04-24T12:33:18;6.63;;;5.18;;
22334;SDS011;11335;43.848;25.958;2023-04-24T12:36:04;8.48;;;5.53;;
22334;SDS011;11335;43.848;25.958;2023-04-24T12:38:52;9.05;;;5.80;;
22334;SDS011;11335;43.848;25.958;2023-04-24T12:41:38;6.55;;;5.55;;
22334;SDS011;11335;43.848;25.958;2023-04-24T12:44:34;8.55;;;5.55;;
22334;SDS011;11335;43.848;25.958;2023-04-24T12:47:20;8.88;;;5.63;;
22334;SDS011;11335;43.848;25.958;2023-04-24T12:50:06;8.23;;;5.85;;
22334;SDS011;11335;43.848;25.958;2023-04-24T12:52:52;15.73;;;6.13;;
22334;SDS011;11335;43.848;25.958;2023-04-24T12:55:37;10.20;;;5.60;;
22334;SDS011;11335;43.848;25.958;2023-04-24T12:58:25;7.95;;;6.10;;
22334;SDS011;11335;43.848;25.958;2023-04-24T13:01:11;10.27;;;6.07;;
22334;SDS011;11335;43.848;25.958;2023-04-24T13:03:57;8.40;;;5.80;;
22334;SDS011;11335;43.848;25.958;2023-04-24T13:06:42;10.85;;;7.40;;
22334;SDS011;11335;43.848;25.958;2023-04-24T13:09:28;9.82;;;6.22;;
22334;SDS011;11335;43.848;25.958;2023-04-24T13:12:13;10.18;;;5.32;;
22334;SDS011;11335;43.848;25.958;2023-04-24T13:14:59;10.02;;;6.38;;
22334;SDS011;11335;43.848;25.958;2023-04-24T13:17:45;10.55;;;6.00;;
22334;SDS011;11335;43.848;25.958;2023-04-24T13:20:30;7.05;;;5.53;;
22334;SDS011;11335;43.848;25.958;2023-04-24T13:23:16;7.95;;;5.82;;
22334;SDS011;11335;43.848;25.958;2023-04-24T13:26:02;7.10;;;5.72;;
22334;SDS011;11335;43.848;25.958;2023-04-24T13:28:48;7.60;;;5.68;;
22334;SDS011;11335;43.848;25.958;2023-04-24T13:31:34;9.32;;;6.00;;
22334;SDS011;11335;43.848;25.958;2023-04-24T13:34:20;6.57;;;5.18;;
22334;SDS011;11335;43.848;25.958;2023-04-24T13:37:06;8.82;;;5.60;;
22334;SDS011;11335;43.848;25.958;2023-04-24T13:39:53;10.70;;;5.65;;
22334;SDS011;11335;43.848;25.958;2023-04-24T13:42:39;5.88;;;5.28;;
22334;SDS011;11335;43.848;25.958;2023-04-24T13:45:25;7.55;;;5.82;;
22334;SDS011;11335;43.848;25.958;2023-04-24T13:48:11;7.63;;;5.25;;
22334;SDS011;11335;43.848;25.958;2023-04-24T13:50:56;7.65;;;5.07;;
22334;SDS011;11335;43.848;25.958;2023-04-24T13:53:42;6.95;;;5.10;;
22334;SDS011;11335;43.848;25.958;2023-04-24T13:56:27;11.07;;;5.68;;
22334;SDS011;11335;43.848;25.958;2023-04-24T13:59:13;7.05;;;5.20;;
22334;SDS011;11335;43.848;25.958;2023-04-24T14:01:58;11.40;;;5.78;;
22334;SDS011;11335;43.848;25.958;2023-04-24T14:04:44;7.95;;;5.90;;
22334;SDS011;11335;43.848;25.958;2023-04-24T14:07:30;7.07;;;5.35;;
22334;SDS011;11335;43.848;25.958;2023-04-24T14:10:17;6.63;;;5.30;;
22334;SDS011;11335;43.848;25.958;2023-04-24T14:13:02;9.52;;;5.30;;
22334;SDS011;11335;43.848;25.958;2023-04-24T14:15:48;8.93;;;5.43;;
22334;SDS011;11335;43.848;25.958;2023-04-24T14:18:34;8.15;;;5.50;;
22334;SDS011;11335;43.848;25.958;2023-04-24T14:21:19;10.48;;;5.28;;
22334;SDS011;11335;43.848;25.958;2023-04-24T14:24:05;8.52;;;5.47;;
22334;SDS011;11335;43.848;25.958;2023-04-24T14:26:51;7.15;;;5.43;;
22334;SDS011;11335;43.848;25.958;2023-04-24T14:29:37;5.90;;;5.28;;
22334;SDS011;11335;43.848;25.958;2023-04-24T14:32:22;6.97;;;5.28;;
22334;SDS011;11335;43.848;25.958;2023-04-24T14:35:08;7.90;;;5.72;;
22334;SDS011;11335;43.848;25.958;2023-04-24T14:37:54;10.18;;;5.82;;
22334;SDS011;11335;43.848;25.958;2023-04-24T14:40:40;9.48;;;6.47;;
22334;SDS011;11335;43.848;25.958;2023-04-24T14:43:26;15.80;;;6.20;;
22334;SDS011;11335;43.848;25.958;2023-04-24T14:46:11;8.10;;;5.78;;
22334;SDS011;11335;43.848;25.958;2023-04-24T14:48:57;7.82;;;5.45;;
22334;SDS011;11335;43.848;25.958;2023-04-24T14:51:43;7.90;;;6.18;;
22334;SDS011;11335;43.848;25.958;2023-04-24T14:54:28;11.25;;;6.05;;
22334;SDS011;11335;43.848;25.958;2023-04-24T14:57:14;11.75;;;5.97;;
22334;SDS011;11335;43.848;25.958;2023-04-24T15:00:00;11.40;;;5.60;;
22334;SDS011;11335;43.848;25.958;2023-04-24T15:02:45;18.85;;;7.30;;
22334;SDS011;11335;43.848;25.958;2023-04-24T15:05:31;9.52;;;6.82;;
22334;SDS011;11335;43.848;25.958;2023-04-24T15:08:17;10.77;;;7.78;;
22334;SDS011;11335;43.848;25.958;2023-04-24T15:11:02;7.60;;;5.75;;
22334;SDS011;11335;43.848;25.958;2023-04-24T15:13:48;10.73;;;6.18;;
22334;SDS011;11335;43.848;25.958;2023-04-24T15:16:33;20.55;;;6.90;;
22334;SDS011;11335;43.848;25.958;2023-04-24T15:19:19;7.25;;;5.75;;
22334;SDS011;11335;43.848;25.958;2023-04-24T15:22:05;7.35;;;5.60;;
22334;SDS011;11335;43.848;25.958;2023-04-24T15:24:50;9.30;;;5.72;;
22334;SDS011;11335;43.848;25.958;2023-04-24T15:27:42;7.88;;;6.07;;
22334;SDS011;11335;43.848;25.958;2023-04-24T15:30:28;6.43;;;5.47;;
22334;SDS011;11335;43.848;25.958;2023-04-24T15:33:14;11.38;;;5.82;;
22334;SDS011;11335;43.848;25.958;2023-04-24T15:36:00;10.65;;;6.00;;
22334;SDS011;11335;43.848;25.958;2023-04-24T15:38:46;8.65;;;6.07;;
22334;SDS011;11335;43.848;25.958;2023-04-24T15:41:31;7.72;;;5.90;;
22334;SDS011;11335;43.848;25.958;2023-04-24T15:44:17;9.27;;;6.28;;
22334;SDS011;11335;43.848;25.958;2023-04-24T15:47:02;7.47;;;5.82;;
22334;SDS011;11335;43.848;25.958;2023-04-24T15:49:48;9.05;;;5.90;;
22334;SDS011;11335;43.848;25.958;2023-04-24T15:52:34;6.82;;;5.90;;
22334;SDS011;11335;43.848;25.958;2023-04-24T15:55:20;9.00;;;6.30;;
22334;SDS011;11335;43.848;25.958;2023-04-24T15:58:05;11.18;;;6.30;;
22334;SDS011;11335;43.848;25.958;2023-04-24T16:00:51;13.52;;;5.95;;
22334;SDS011;11335;43.848;25.958;2023-04-24T16:03:38;22.00;;;6.72;;
22334;SDS011;11335;43.848;25.958;2023-04-24T16:06:24;13.27;;;5.78;;
22334;SDS011;11335;43.848;25.958;2023-04-24T16:09:09;9.60;;;5.65;;
22334;SDS011;11335;43.848;25.958;2023-04-24T16:11:55;12.15;;;6.60;;
22334;SDS011;11335;43.848;25.958;2023-04-24T16:14:41;10.40;;;7.28;;
22334;SDS011;11335;43.848;25.958;2023-04-24T16:17:26;29.58;;;15.13;;
22334;SDS011;11335;43.848;25.958;2023-04-24T16:20:12;12.48;;;6.40;;
22334;SDS011;11335;43.848;25.958;2023-04-24T16:22:58;11.30;;;6.10;;
22334;SDS011;11335;43.848;25.958;2023-04-24T16:25:43;13.90;;;6.63;;
22334;SDS011;11335;43.848;25.958;2023-04-24T16:28:29;14.95;;;6.88;;
22334;SDS011;11335;43.848;25.958;2023-04-24T16:31:15;12.00;;;6.40;;